Sy Kerpa — 7SY6514 — position and weather

sailwx.info

Track history (hours):
 
Tides and Currents Weather Stations Pressure Air Temp Water Temp Dewpoint Dewpoint Depression Visibility Wind Speed Wind Dir Waves Ship Positions

Sy Kerpa

Last reported at 2017-Sep-22 01:59 UTC. Time now 2017-Sep-22 20:35 UTC.
Position N 38°58' W 076°29'.

Length 16 m.

Type: Sailing vessel. MMSI: 265757350.

Date/timePositionNaut miles runAvg speedWind from/ knotsBaromVisibWave heightAir tempDewpointWater temp
2017-Sep-22 01:59N 38°58' W 076°29'0 0.0
2017-Sep-22 01:29N 38°58' W 076°29'0 0.0
2017-Sep-22 00:59N 38°58' W 076°29'0 0.0
2017-Sep-22 00:29N 38°58' W 076°29'0 0.0
2017-Sep-21 23:59N 38°58' W 076°29'0 0.0
2017-Sep-21 23:29N 38°58' W 076°29'0 0.0
2017-Sep-21 22:59N 38°58' W 076°29'0 0.0
2017-Sep-21 22:29N 38°58' W 076°29'0 0.0
2017-Sep-21 21:59N 38°58' W 076°29'0 0.0
2017-Sep-21 21:29N 38°58' W 076°29'0 0.0
2017-Sep-21 20:59N 38°58' W 076°29'0 0.0
2017-Sep-21 20:29N 38°58' W 076°29'0 0.0
2017-Sep-21 19:59N 38°58' W 076°29'0 0.0
2017-Sep-21 19:29N 38°58' W 076°29'0 0.0
2017-Sep-21 18:56N 38°58' W 076°29'0 0.0
2017-Sep-21 18:29N 38°58' W 076°29'0 0.0
2017-Sep-21 17:59N 38°58' W 076°29'1 1.4
2017-Sep-21 17:30N 38°58' W 076°28'3 5.9
2017-Sep-21 17:00N 38°56' W 076°26'6 0.1
2017-Sep-19 19:09N 38°50' W 076°23'1 5.9
2017-Sep-19 19:00N 38°51' W 076°24'3 6.6
2017-Sep-19 18:30N 38°54' W 076°25'3 6.3
2017-Sep-19 18:00N 38°57' W 076°26'2 5.0
2017-Sep-19 17:30N 38°59' W 076°26'  
2017-Sep-14 06:29N 38°58' W 076°29'0 0.0
2017-Sep-14 05:56N 38°58' W 076°29'0 0.0
2017-Sep-14 05:29N 38°58' W 076°29'0 0.0
2017-Sep-14 04:56N 38°58' W 076°29'28 1.9
2017-Sep-13 14:01N 39°21' W 076°09'4 6.8
2017-Sep-13 13:29N 39°23' W 076°05'4 5.8
2017-Sep-13 12:46N 39°23' W 075°60'1 3.6
2017-Sep-13 12:29N 39°22' W 075°59'0 0.0
2017-Sep-13 11:59N 39°22' W 075°59'0 0.0
2017-Sep-13 11:29N 39°22' W 075°59'0 0.0
2017-Sep-13 10:59N 39°22' W 075°59'0 0.0
2017-Sep-13 10:29N 39°22' W 075°59'0 0.0
2017-Sep-13 09:59N 39°22' W 075°59'0 0.0
2017-Sep-13 09:23N 39°22' W 075°59'0 0.0
2017-Sep-13 08:59N 39°22' W 075°59'0 0.0
2017-Sep-13 08:26N 39°22' W 075°59'0 0.0
2017-Sep-13 07:59N 39°22' W 075°59'0 0.0
2017-Sep-13 07:29N 39°22' W 075°59'0 0.0
2017-Sep-13 06:53N 39°22' W 075°59'0 0.0
2017-Sep-13 06:29N 39°22' W 075°59'0 0.0
2017-Sep-13 05:59N 39°22' W 075°59'0 0.0
2017-Sep-13 05:26N 39°22' W 075°59'0 0.0
2017-Sep-13 04:59N 39°22' W 075°59'0 0.0
2017-Sep-13 04:23N 39°22' W 075°59'0 0.0
2017-Sep-13 03:50N 39°22' W 075°59'0 0.0
2017-Sep-13 03:29N 39°22' W 075°59'0 0.0
2017-Sep-13 02:59N 39°22' W 075°59'0 0.0
2017-Sep-13 02:29N 39°22' W 075°59'0 0.0
2017-Sep-13 01:53N 39°22' W 075°59'0 0.0
2017-Sep-13 01:20N 39°22' W 075°59'0 0.0
2017-Sep-13 00:56N 39°22' W 075°59'0 0.0
2017-Sep-13 00:26N 39°22' W 075°59'0 0.0
2017-Sep-12 23:59N 39°22' W 075°59'0 0.0
2017-Sep-12 23:29N 39°22' W 075°59'0 0.0
2017-Sep-12 22:59N 39°22' W 075°59'0 0.0
2017-Sep-12 22:29N 39°22' W 075°59'0 0.0
2017-Sep-12 21:56N 39°22' W 075°59'0 0.0
2017-Sep-12 21:26N 39°22' W 075°59'0 0.0
2017-Sep-12 20:59N 39°22' W 075°59'0 0.0
2017-Sep-12 20:26N 39°22' W 075°59'0 0.0
2017-Sep-12 19:50N 39°22' W 075°59'0 0.0
2017-Sep-12 15:53N 39°22' W 075°59'0 0.0
2017-Sep-12 15:23N 39°22' W 075°59'0 0.0
2017-Sep-12 14:53N 39°22' W 075°59'0 0.0
2017-Sep-12 14:29N 39°22' W 075°59'0 0.0
2017-Sep-12 13:56N 39°22' W 075°59'0 0.0
2017-Sep-12 13:26N 39°22' W 075°59'0 0.0
2017-Sep-12 09:14N 39°22' W 075°59'0 0.0
2017-Sep-12 08:59N 39°22' W 075°59'0 0.0
2017-Sep-12 08:29N 39°22' W 075°59'0 0.0
2017-Sep-12 07:59N 39°22' W 075°59'0 0.0
2017-Sep-12 07:29N 39°22' W 075°59'0 0.0
2017-Sep-12 06:56N 39°22' W 075°59'0 0.0
2017-Sep-12 06:29N 39°22' W 075°59'0 0.0
2017-Sep-12 05:59N 39°22' W 075°59'0 0.0
2017-Sep-12 05:29N 39°22' W 075°59'0 0.0
2017-Sep-12 04:59N 39°22' W 075°59'0 0.0
2017-Sep-12 04:29N 39°22' W 075°59'0 0.0
2017-Sep-12 03:59N 39°22' W 075°59'0 0.0
2017-Sep-12 03:29N 39°22' W 075°59'0 0.0
2017-Sep-12 02:53N 39°22' W 075°59'0 0.0
2017-Sep-12 02:29N 39°22' W 075°59'0 0.0
2017-Sep-12 01:59N 39°22' W 075°59'  
Track history (hours):
 
Tides and Currents Weather Stations Pressure Air Temp Water Temp Dewpoint Dewpoint Depression Visibility Wind Speed Wind Dir Waves Ship Positions

Sy Kerpa

Last reported at 2017-Sep-22 01:59 UTC. Time now 2017-Sep-22 20:35 UTC.
Position N 38°58' W 076°29'.

Length 16 m.

Type: Sailing vessel. MMSI: 265757350.

Date/timePositionNaut miles runAvg speedWind from/ knotsBaromVisibWave heightAir tempDewpointWater temp
2017-Sep-22 01:59N 38°58' W 076°29'0 0.0
2017-Sep-22 01:29N 38°58' W 076°29'0 0.0
2017-Sep-22 00:59N 38°58' W 076°29'0 0.0
2017-Sep-22 00:29N 38°58' W 076°29'0 0.0
2017-Sep-21 23:59N 38°58' W 076°29'0 0.0
2017-Sep-21 23:29N 38°58' W 076°29'0 0.0
2017-Sep-21 22:59N 38°58' W 076°29'0 0.0
2017-Sep-21 22:29N 38°58' W 076°29'0 0.0
2017-Sep-21 21:59N 38°58' W 076°29'0 0.0
2017-Sep-21 21:29N 38°58' W 076°29'0 0.0
2017-Sep-21 20:59N 38°58' W 076°29'0 0.0
2017-Sep-21 20:29N 38°58' W 076°29'0 0.0
2017-Sep-21 19:59N 38°58' W 076°29'0 0.0
2017-Sep-21 19:29N 38°58' W 076°29'0 0.0
2017-Sep-21 18:56N 38°58' W 076°29'0 0.0
2017-Sep-21 18:29N 38°58' W 076°29'0 0.0
2017-Sep-21 17:59N 38°58' W 076°29'1 1.4
2017-Sep-21 17:30N 38°58' W 076°28'3 5.9
2017-Sep-21 17:00N 38°56' W 076°26'6 0.1
2017-Sep-19 19:09N 38°50' W 076°23'1 5.9
2017-Sep-19 19:00N 38°51' W 076°24'3 6.6
2017-Sep-19 18:30N 38°54' W 076°25'3 6.3
2017-Sep-19 18:00N 38°57' W 076°26'2 5.0
2017-Sep-19 17:30N 38°59' W 076°26'  
2017-Sep-14 06:29N 38°58' W 076°29'0 0.0
2017-Sep-14 05:56N 38°58' W 076°29'0 0.0
2017-Sep-14 05:29N 38°58' W 076°29'0 0.0
2017-Sep-14 04:56N 38°58' W 076°29'28 1.9
2017-Sep-13 14:01N 39°21' W 076°09'4 6.8
2017-Sep-13 13:29N 39°23' W 076°05'4 5.8
2017-Sep-13 12:46N 39°23' W 075°60'1 3.6
2017-Sep-13 12:29N 39°22' W 075°59'0 0.0
2017-Sep-13 11:59N 39°22' W 075°59'0 0.0
2017-Sep-13 11:29N 39°22' W 075°59'0 0.0
2017-Sep-13 10:59N 39°22' W 075°59'0 0.0
2017-Sep-13 10:29N 39°22' W 075°59'0 0.0
2017-Sep-13 09:59N 39°22' W 075°59'0 0.0
2017-Sep-13 09:23N 39°22' W 075°59'0 0.0
2017-Sep-13 08:59N 39°22' W 075°59'0 0.0
2017-Sep-13 08:26N 39°22' W 075°59'0 0.0
2017-Sep-13 07:59N 39°22' W 075°59'0 0.0
2017-Sep-13 07:29N 39°22' W 075°59'0 0.0
2017-Sep-13 06:53N 39°22' W 075°59'0 0.0
2017-Sep-13 06:29N 39°22' W 075°59'0 0.0
2017-Sep-13 05:59N 39°22' W 075°59'0 0.0
2017-Sep-13 05:26N 39°22' W 075°59'0 0.0
2017-Sep-13 04:59N 39°22' W 075°59'0 0.0
2017-Sep-13 04:23N 39°22' W 075°59'0 0.0
2017-Sep-13 03:50N 39°22' W 075°59'0 0.0
2017-Sep-13 03:29N 39°22' W 075°59'0 0.0
2017-Sep-13 02:59N 39°22' W 075°59'0 0.0
2017-Sep-13 02:29N 39°22' W 075°59'0 0.0
2017-Sep-13 01:53N 39°22' W 075°59'0 0.0
2017-Sep-13 01:20N 39°22' W 075°59'0 0.0
2017-Sep-13 00:56N 39°22' W 075°59'0 0.0
2017-Sep-13 00:26N 39°22' W 075°59'0 0.0
2017-Sep-12 23:59N 39°22' W 075°59'0 0.0
2017-Sep-12 23:29N 39°22' W 075°59'0 0.0
2017-Sep-12 22:59N 39°22' W 075°59'0 0.0
2017-Sep-12 22:29N 39°22' W 075°59'0 0.0
2017-Sep-12 21:56N 39°22' W 075°59'0 0.0
2017-Sep-12 21:26N 39°22' W 075°59'0 0.0
2017-Sep-12 20:59N 39°22' W 075°59'0 0.0
2017-Sep-12 20:26N 39°22' W 075°59'0 0.0
2017-Sep-12 19:50N 39°22' W 075°59'0 0.0
2017-Sep-12 15:53N 39°22' W 075°59'0 0.0
2017-Sep-12 15:23N 39°22' W 075°59'0 0.0
2017-Sep-12 14:53N 39°22' W 075°59'0 0.0
2017-Sep-12 14:29N 39°22' W 075°59'0 0.0
2017-Sep-12 13:56N 39°22' W 075°59'0 0.0
2017-Sep-12 13:26N 39°22' W 075°59'0 0.0
2017-Sep-12 09:14N 39°22' W 075°59'0 0.0
2017-Sep-12 08:59N 39°22' W 075°59'0 0.0
2017-Sep-12 08:29N 39°22' W 075°59'0 0.0
2017-Sep-12 07:59N 39°22' W 075°59'0 0.0
2017-Sep-12 07:29N 39°22' W 075°59'0 0.0
2017-Sep-12 06:56N 39°22' W 075°59'0 0.0
2017-Sep-12 06:29N 39°22' W 075°59'0 0.0
2017-Sep-12 05:59N 39°22' W 075°59'0 0.0
2017-Sep-12 05:29N 39°22' W 075°59'0 0.0
2017-Sep-12 04:59N 39°22' W 075°59'0 0.0
2017-Sep-12 04:29N 39°22' W 075°59'0 0.0
2017-Sep-12 03:59N 39°22' W 075°59'0 0.0
2017-Sep-12 03:29N 39°22' W 075°59'0 0.0
2017-Sep-12 02:53N 39°22' W 075°59'0 0.0
2017-Sep-12 02:29N 39°22' W 075°59'0 0.0
2017-Sep-12 01:59N 39°22' W 075°59'  

Dump ship's entire track history